Yellville, AR (72687)

8:54 AM CDT on August 21, 2014 (GMT -0500)
HADS CROOKED CREEK AT YELLVILLE AR US USARMY-COE | Change Station
CLOSE
Current Station
Personal Weather Station
Location: Yellville, AR
Elevation: 566 ft
Nearby Weather Stations
Active Advisory: Special Statement

Elev 566 ft 36.22 °N, 92.68 °W | Updated 1 hour ago

Clear
Clear
71 °F
Feels Like 71 °F
N
Wind Variable Wind from North
Gusts 0.0 mph

Today
High -- | Low -- °F
--% Chance of Precip.
Yesterday
High -- | Low -- °F
Precip. -- in
6:33 AM 7:53 PM
Waning Crescent, 14% visible
Pressure 30.05 in
Visibility 10.0 miles
Clouds Clear
Dew Point Not available.
Humidity Not available.
Rainfall 0.00 in
Snow Depth Not available.
UV 2 out of 12
Pollen 10.90 out of 12
Air Quality Not available.
Flu Activity Not available.
METAR KFLP 211335Z AUTO 23009KT 150V260 10SM CLR 26/21 A3005 RMK AO1

More Conditions Fewer Conditions

Pressure 30.05 in
Visibility 10.0 miles
Clouds Clear
Dew Point Not available.
Humidity Not available.
Rainfall 0.00 in
Snow Depth Not available.
UV 2 out of 12
Pollen 10.90 out of 12
Air Quality Not available.
Flu Activity Not available.
METAR KFLP 211335Z AUTO 23009KT 150V260 10SM CLR 26/21 A3005 RMK AO1

More Conditions Fewer Conditions

10-Day Weather Forecast

Almanac

Astronomy

Aug. 21, 2014 Rise Set
Actual Time 6:33 AM CDT 7:53 PM CDT
Civil Twilight 6:06 AM CDT 8:20 PM CDT
Nautical Twilight 5:34 AM CDT 8:52 PM CDT
Astronomical Twilight 5:00 AM CDT 9:25 PM CDT
Moon 3:07 AM CDT 5:20 PM CDT
Length of Visible Light 14h 13m
Length of Day
13h 19m
Tomorrow will be 2m 6s shorter.
Waning Crescent, 14% of the Moon is Illuminated
Today
Waning Crescent
Aug 25
New
Sep 2
First Quarter
Sep 8
Full
Sep 15
Last Quarter

Today's Extremes

State Highs State Lows

Community

WunderPhotos

Upload Photos

1,745,918 photos uploaded!

WunderBlogs® & News

Nearby

Snow Depth

Station Depth Elevation
No new snow has been reported.

Earthquake Activity

City Distance Mag. Time & Date
No recent earthquake activity has been reported nearby.
Minimum magnitude displayed is 2.5.

Coastal Water Temperatures

Place Temperature
No Stations Reporting

Nearby Weather Stations